createdAt,value
2023-09-15T00:01:11.177Z,4.90
2023-09-15T00:04:18.413Z,6.50
2023-09-15T00:07:27.377Z,4.20
2023-09-15T00:10:34.668Z,2.60
2023-09-15T00:13:41.857Z,4.30
2023-09-15T00:16:50.937Z,5.60
2023-09-15T00:19:58.249Z,4.70
2023-09-15T00:23:05.569Z,5.00
2023-09-15T00:26:12.648Z,5.70
2023-09-15T00:29:21.301Z,4.50
2023-09-15T00:32:28.213Z,9.00
2023-09-15T00:35:35.902Z,4.60
2023-09-15T00:38:45.244Z,5.70
2023-09-15T00:41:53.352Z,4.50
2023-09-15T00:45:00.781Z,5.40
2023-09-15T00:48:09.806Z,5.20
2023-09-15T00:51:17.547Z,4.50
2023-09-15T00:54:25.544Z,7.00
2023-09-15T00:57:34.445Z,5.80
2023-09-15T01:00:41.203Z,5.50
2023-09-15T01:03:48.820Z,5.20
2023-09-15T01:06:56.598Z,3.40
2023-09-15T01:10:06.356Z,6.00
2023-09-15T01:13:13.970Z,5.70
2023-09-15T01:16:21.956Z,4.60
2023-09-15T01:20:09.882Z,9.00
2023-09-15T01:23:19.207Z,6.00
2023-09-15T01:26:26.819Z,4.10
2023-09-15T01:29:35.037Z,5.20
2023-09-15T01:32:42.927Z,5.60
2023-09-15T01:35:50.309Z,4.60
2023-09-15T01:38:58.749Z,7.40
2023-09-15T01:42:06.019Z,6.90
2023-09-15T01:45:13.618Z,4.30
2023-09-15T01:48:22.368Z,8.60
2023-09-15T01:51:29.721Z,12.60
2023-09-15T01:54:37.507Z,5.90
2023-09-15T01:57:44.584Z,8.10
2023-09-15T02:00:54.025Z,7.20
2023-09-15T02:04:01.686Z,6.20
2023-09-15T02:07:08.753Z,7.70
2023-09-15T02:10:18.185Z,6.60
2023-09-15T02:13:25.280Z,8.00
2023-09-15T02:16:32.535Z,5.20
2023-09-15T02:19:41.411Z,7.90
2023-09-15T02:22:48.950Z,5.30
2023-09-15T02:25:56.021Z,7.90
2023-09-15T02:29:04.741Z,6.60
2023-09-15T02:32:12.255Z,7.10
2023-09-15T02:35:19.790Z,5.30
2023-09-15T02:38:28.035Z,6.60
2023-09-15T02:41:36.510Z,7.20
2023-09-15T02:44:43.892Z,8.40
2023-09-15T02:47:50.598Z,10.40
2023-09-15T02:50:59.452Z,9.50
2023-09-15T02:54:07.435Z,6.40
2023-09-15T02:57:15.471Z,9.10
2023-09-15T03:00:24.021Z,7.80
2023-09-15T03:03:31.424Z,9.50
2023-09-15T03:06:38.263Z,7.20
2023-09-15T03:09:47.912Z,8.90
2023-09-15T03:12:55.511Z,7.90
2023-09-15T03:16:02.666Z,9.50
2023-09-15T03:19:11.313Z,7.00
2023-09-15T03:22:19.205Z,8.50
2023-09-15T03:25:26.729Z,6.00
2023-09-15T03:28:34.851Z,7.60
2023-09-15T03:31:43.033Z,5.80
2023-09-15T03:34:51.013Z,11.00
2023-09-15T03:37:58.425Z,8.90
2023-09-15T03:41:07.123Z,8.90
2023-09-15T03:44:14.152Z,7.70
2023-09-15T03:47:22.156Z,8.70
2023-09-15T03:50:31.702Z,6.20
2023-09-15T03:53:39.442Z,8.20
2023-09-15T03:56:46.923Z,8.20
2023-09-15T03:59:55.276Z,8.30
2023-09-15T04:03:03.158Z,8.10
2023-09-15T04:06:10.973Z,5.10
2023-09-15T04:09:18.179Z,7.40
2023-09-15T04:12:27.112Z,9.60
2023-09-15T04:15:34.404Z,5.80
2023-09-15T04:18:42.578Z,7.60
2023-09-15T04:21:51.337Z,4.40
2023-09-15T04:24:58.887Z,7.60
2023-09-15T04:28:06.393Z,7.70
2023-09-15T04:31:16.549Z,5.40
2023-09-15T04:34:23.906Z,5.90
2023-09-15T04:37:31.332Z,6.30
2023-09-15T04:40:40.135Z,10.20
2023-09-15T04:43:47.242Z,9.30
2023-09-15T04:46:54.436Z,8.30
2023-09-15T04:50:03.491Z,7.30
2023-09-15T04:53:11.004Z,9.70
2023-09-15T04:56:17.700Z,10.00
2023-09-15T04:59:25.275Z,6.80
2023-09-15T05:02:33.843Z,8.20
2023-09-15T05:05:41.149Z,7.60
2023-09-15T05:08:49.061Z,8.60
2023-09-15T05:11:57.808Z,7.90
2023-09-15T05:15:04.508Z,7.70
2023-09-15T05:18:12.012Z,9.20
2023-09-15T05:21:21.208Z,6.20
2023-09-15T05:24:28.242Z,8.30
2023-09-15T05:27:35.673Z,9.20
2023-09-15T05:30:44.634Z,8.40
2023-09-15T05:33:51.754Z,9.10
2023-09-15T05:37:00.220Z,6.10
2023-09-15T05:40:07.428Z,7.90
2023-09-15T05:43:16.239Z,12.30
2023-09-15T05:46:23.674Z,9.20
2023-09-15T05:49:31.314Z,14.00
2023-09-15T05:52:40.141Z,10.40
2023-09-15T05:55:48.122Z,11.50
2023-09-15T05:58:55.455Z,10.90
2023-09-15T06:02:03.705Z,10.00
2023-09-15T06:05:11.098Z,13.00
2023-09-15T06:08:18.754Z,11.70
2023-09-15T06:11:27.285Z,9.20
2023-09-15T06:14:36.216Z,14.60
2023-09-15T06:17:43.632Z,10.10
2023-09-15T06:20:50.468Z,11.70
2023-09-15T06:23:59.338Z,12.20
2023-09-15T06:27:05.972Z,9.70
2023-09-15T06:30:14.011Z,9.80
2023-09-15T06:33:23.078Z,9.70
2023-09-15T06:36:29.856Z,9.60
2023-09-15T06:39:38.165Z,9.90
2023-09-15T06:42:47.150Z,14.30
2023-09-15T06:45:54.200Z,10.50
2023-09-15T06:49:01.854Z,11.20
2023-09-15T06:52:10.597Z,9.80
2023-09-15T06:55:17.943Z,10.50
2023-09-15T06:58:24.672Z,11.10
2023-09-15T07:01:32.685Z,12.00
2023-09-15T07:04:41.318Z,11.80
2023-09-15T07:07:49.132Z,11.90
2023-09-15T07:10:56.389Z,12.60
2023-09-15T07:14:05.287Z,8.90
2023-09-15T07:17:13.528Z,11.30
2023-09-15T07:20:21.627Z,8.50
2023-09-15T15:56:56.697Z,2.10
2023-09-15T16:00:05.499Z,4.20
2023-09-15T16:03:13.450Z,3.10
2023-09-15T16:06:20.285Z,2.70
2023-09-15T16:09:29.634Z,2.60
2023-09-15T16:12:37.983Z,2.80
2023-09-15T16:15:45.346Z,2.20
2023-09-15T16:18:54.456Z,2.10
2023-09-15T16:22:02.632Z,4.40
2023-09-15T16:25:10.261Z,5.70
2023-09-15T16:28:19.297Z,3.60
2023-09-15T16:31:26.530Z,3.90
2023-09-15T16:34:34.130Z,4.10
2023-09-15T16:37:42.821Z,3.60
2023-09-15T16:40:49.763Z,2.50
2023-09-15T16:43:56.964Z,3.60
2023-09-15T16:47:04.198Z,2.80
2023-09-15T16:50:12.869Z,2.20
2023-09-15T16:53:20.662Z,4.30
2023-09-15T16:56:27.722Z,3.90
2023-09-15T16:59:36.581Z,3.50
2023-09-15T17:02:43.429Z,2.60
2023-09-15T17:05:50.857Z,2.20
2023-09-15T17:08:59.338Z,4.50
2023-09-15T17:12:07.059Z,2.60
2023-09-15T17:15:14.771Z,4.10
2023-09-15T17:18:23.491Z,4.30
2023-09-15T17:21:31.014Z,9.70
2023-09-15T17:24:38.963Z,5.20
2023-09-15T17:27:45.934Z,2.60
2023-09-15T17:30:54.739Z,2.10
2023-09-15T17:34:01.856Z,3.20
2023-09-15T17:37:08.979Z,6.70
2023-09-15T17:40:17.974Z,4.50
2023-09-15T17:43:25.056Z,3.20
2023-09-15T17:46:31.786Z,4.20
2023-09-15T17:49:40.346Z,5.90
2023-09-15T17:52:47.265Z,5.50
2023-09-15T17:55:54.829Z,3.60
2023-09-15T17:59:04.060Z,6.80
2023-09-15T18:02:11.246Z,3.60
2023-09-15T18:05:18.141Z,5.10
2023-09-15T18:08:25.717Z,4.10
2023-09-15T18:11:34.011Z,5.70
2023-09-15T18:14:41.238Z,4.10
2023-09-15T18:17:48.664Z,6.80
2023-09-15T18:20:57.691Z,4.50
2023-09-15T18:24:05.108Z,4.10
2023-09-15T18:27:12.084Z,3.80
2023-09-15T18:30:20.987Z,4.30
2023-09-15T18:33:28.731Z,5.00
2023-09-15T18:36:36.216Z,6.10
2023-09-15T18:39:44.781Z,4.50
2023-09-15T18:42:51.859Z,4.40
2023-09-15T18:45:59.067Z,5.10
2023-09-15T18:49:06.456Z,5.40
2023-09-15T18:52:15.279Z,6.30
2023-09-15T18:55:22.765Z,7.10
2023-09-15T18:58:30.973Z,7.40
2023-09-15T19:01:39.211Z,6.80
2023-09-15T19:04:46.259Z,6.50
2023-09-15T19:07:53.467Z,6.60
2023-09-15T19:11:02.024Z,6.80
2023-09-15T19:14:09.299Z,6.50
2023-09-15T19:17:16.547Z,7.40
2023-09-15T19:20:25.618Z,4.80
2023-09-15T19:23:32.982Z,7.30
2023-09-15T19:26:40.500Z,5.70
2023-09-15T19:29:48.859Z,6.70
2023-09-15T19:32:56.607Z,5.10
2023-09-15T19:36:03.788Z,5.50
2023-09-15T19:39:11.360Z,4.40
2023-09-15T19:42:19.917Z,4.70
2023-09-15T19:45:27.199Z,4.80
2023-09-15T19:48:36.367Z,3.20
2023-09-15T19:51:35.262Z,5.10
2023-09-15T19:54:42.422Z,5.80
2023-09-15T19:57:49.794Z,4.60
2023-09-15T20:00:58.055Z,6.30
2023-09-15T20:04:06.747Z,7.70
2023-09-15T20:07:13.846Z,5.90
2023-09-15T20:10:22.046Z,4.80
2023-09-15T20:13:30.251Z,4.20
2023-09-15T20:16:37.420Z,4.60
2023-09-15T20:19:45.254Z,4.50
2023-09-15T20:22:53.356Z,6.80
2023-09-15T20:26:01.003Z,5.10
2023-09-15T20:29:08.113Z,5.80
2023-09-15T20:32:17.346Z,5.60
2023-09-15T20:35:24.086Z,4.90
2023-09-15T20:38:31.467Z,7.30
2023-09-15T20:41:40.590Z,4.70
2023-09-15T20:44:48.146Z,4.60
2023-09-15T20:47:55.926Z,5.60
2023-09-15T20:51:04.887Z,4.20
2023-09-15T20:54:12.259Z,3.20
2023-09-15T20:57:19.489Z,4.40
2023-09-15T21:00:26.219Z,4.40
2023-09-15T21:03:34.783Z,5.70
2023-09-15T21:06:41.846Z,3.10
2023-09-15T21:09:49.629Z,4.90
2023-09-15T21:12:58.710Z,3.90
2023-09-15T21:16:06.304Z,4.60
2023-09-15T21:19:13.118Z,4.30
2023-09-15T21:22:22.521Z,5.40
2023-09-15T21:25:29.236Z,4.70
2023-09-15T21:28:36.950Z,4.90
2023-09-15T21:31:45.530Z,5.40
2023-09-15T21:34:53.024Z,6.20
2023-09-15T21:38:00.466Z,4.50
2023-09-15T21:41:07.595Z,7.00
2023-09-15T21:44:18.859Z,5.90
2023-09-15T21:47:25.540Z,6.90
2023-09-15T21:50:33.131Z,4.60
2023-09-15T21:53:41.837Z,5.90
2023-09-15T21:56:49.497Z,3.60
2023-09-15T21:59:56.605Z,7.90
2023-09-15T22:03:05.026Z,3.40
2023-09-15T22:06:12.504Z,3.40
2023-09-15T22:09:20.050Z,5.10
2023-09-15T22:12:28.948Z,4.50
2023-09-15T22:15:35.947Z,5.10
2023-09-15T22:18:43.814Z,4.30
2023-09-15T22:21:51.016Z,2.90
2023-09-15T22:25:01.226Z,6.80
2023-09-15T22:28:08.260Z,4.10
2023-09-15T22:31:15.257Z,4.70
2023-09-15T22:34:24.596Z,3.50
2023-09-15T22:37:31.785Z,5.10
2023-09-15T22:40:38.769Z,7.10
2023-09-15T22:43:47.958Z,7.00
2023-09-15T22:46:55.453Z,5.20
2023-09-15T22:50:02.531Z,3.00
2023-09-15T22:53:11.657Z,4.10
2023-09-15T22:56:19.982Z,4.80
2023-09-15T22:59:26.656Z,5.30
2023-09-15T23:02:35.992Z,5.20
2023-09-15T23:05:43.864Z,9.00
2023-09-15T23:08:50.848Z,5.20
2023-09-15T23:11:58.689Z,6.00
2023-09-15T23:15:07.455Z,3.60
2023-09-15T23:18:14.819Z,4.30
2023-09-15T23:21:21.955Z,5.40
2023-09-15T23:24:30.766Z,8.80
2023-09-15T23:27:37.997Z,6.40
2023-09-15T23:30:45.360Z,6.20
2023-09-15T23:33:53.918Z,4.80
2023-09-15T23:37:01.847Z,6.00
2023-09-15T23:40:08.885Z,5.90
2023-09-15T23:43:17.016Z,4.10
2023-09-15T23:46:24.521Z,5.70
2023-09-15T23:49:31.521Z,6.50
2023-09-15T23:52:38.439Z,6.90
2023-09-15T23:55:46.966Z,8.60
2023-09-15T23:58:54.298Z,5.40
